createdAt,value
2019-03-16T00:02:13.072Z,99017.00
2019-03-16T00:05:16.728Z,99007.39
2019-03-16T00:08:20.203Z,99011.36
2019-03-16T00:11:23.706Z,99026.98
2019-03-16T00:14:27.218Z,99049.48
2019-03-16T00:17:30.704Z,99062.97
2019-03-16T00:20:34.208Z,99068.64
2019-03-16T00:23:37.709Z,99045.77
2019-03-16T00:26:41.203Z,99029.55
2019-03-16T00:29:44.649Z,99043.13
2019-03-16T00:32:48.136Z,99042.91
2019-03-16T00:35:51.570Z,99049.65
2019-03-16T00:38:55.019Z,99045.34
2019-03-16T00:41:58.514Z,99050.63
2019-03-16T00:45:02.033Z,99064.45
2019-03-16T00:48:05.510Z,99060.48
2019-03-16T00:51:09.005Z,99077.69
2019-03-16T00:54:12.530Z,99074.00
2019-03-16T00:57:16.024Z,99080.84
2019-03-16T01:00:19.528Z,99073.02
2019-03-16T01:03:23.094Z,99079.17
2019-03-16T01:06:26.715Z,99077.97
2019-03-16T01:09:30.222Z,99081.94
2019-03-16T01:12:33.753Z,99093.34
2019-03-16T01:15:43.368Z,99092.65
2019-03-16T01:18:46.874Z,99100.08
2019-03-16T01:21:50.307Z,99100.59
2019-03-16T01:24:53.741Z,99102.85
2019-03-16T01:27:57.368Z,99103.36
2019-03-16T01:31:00.863Z,99100.71
2019-03-16T01:34:04.385Z,99111.30
2019-03-16T01:37:07.968Z,99113.94
2019-03-16T01:40:11.588Z,99119.48
2019-03-16T01:43:15.097Z,99109.87
2019-03-16T01:46:18.585Z,99108.39
2019-03-16T01:49:22.097Z,99113.22
2019-03-16T01:52:25.675Z,99120.58
2019-03-16T01:55:29.292Z,99123.70
2019-03-16T01:58:33.804Z,99125.37
2019-03-16T02:01:37.325Z,99123.23
2019-03-16T02:04:40.801Z,99122.72
2019-03-16T02:07:44.318Z,99128.99
2019-03-16T02:10:48.836Z,99136.92
2019-03-16T02:13:52.307Z,99136.92
2019-03-16T02:16:55.935Z,99136.58
2019-03-16T02:19:59.558Z,99144.86
2019-03-16T02:23:03.050Z,99145.84
2019-03-16T02:26:06.548Z,99147.63
2019-03-16T02:29:10.055Z,99154.37
2019-03-16T02:32:13.486Z,99163.98
2019-03-16T02:35:17.059Z,99179.16
2019-03-16T02:38:20.696Z,99177.83
2019-03-16T02:41:24.164Z,99185.27
2019-03-16T02:44:27.658Z,99193.70
2019-03-16T02:47:31.170Z,99195.02
2019-03-16T02:50:34.863Z,99198.48
2019-03-16T02:53:38.461Z,99206.55
2019-03-16T02:56:41.887Z,99206.93
2019-03-16T02:59:45.369Z,99190.67
2019-03-16T03:02:49.984Z,99205.00
2019-03-16T03:05:53.512Z,99204.88
2019-03-16T03:08:58.108Z,99201.03
2019-03-16T03:12:02.530Z,99197.06
2019-03-16T03:15:06.261Z,99200.56
2019-03-16T03:18:09.747Z,99201.53
2019-03-16T03:21:13.234Z,99216.08
2019-03-16T03:24:16.681Z,99216.08
2019-03-16T03:27:20.139Z,99213.05
2019-03-16T03:30:23.823Z,99221.38
2019-03-16T03:33:27.262Z,99232.55
2019-03-16T03:36:30.686Z,99237.84
2019-03-16T03:39:34.218Z,99250.71
2019-03-16T03:42:37.670Z,99258.53
2019-03-16T03:45:41.189Z,99249.73
2019-03-16T03:48:44.677Z,99254.68
2019-03-16T03:51:48.353Z,99266.93
2019-03-16T03:54:51.968Z,99275.84
2019-03-16T03:57:57.393Z,99286.30
2019-03-16T04:01:01.834Z,99286.42
2019-03-16T04:04:14.897Z,99283.78
2019-03-16T04:07:11.511Z,99284.72
2019-03-16T04:10:14.989Z,99290.00
2019-03-16T04:13:18.525Z,99292.42
2019-03-16T04:16:24.050Z,99298.21
2019-03-16T04:19:28.679Z,99296.62
2019-03-16T04:22:32.170Z,99289.30
2019-03-16T04:25:35.609Z,99303.00
2019-03-16T04:28:39.095Z,99312.02
2019-03-16T04:31:42.591Z,99318.98
2019-03-16T04:34:46.188Z,99307.09
2019-03-16T04:37:49.631Z,99327.30
2019-03-16T04:40:53.087Z,99341.47
2019-03-16T04:43:56.584Z,99343.30
2019-03-16T04:47:00.087Z,99348.58
2019-03-16T04:50:03.800Z,99354.34
2019-03-16T04:53:07.280Z,99360.22
2019-03-16T04:56:10.804Z,99362.39
2019-03-16T04:59:14.289Z,99370.21
2019-03-16T05:02:17.782Z,99376.09
2019-03-16T05:05:21.309Z,99384.02
2019-03-16T05:08:25.003Z,99388.46
2019-03-16T05:11:28.478Z,99384.88
2019-03-16T05:14:33.133Z,99377.03
2019-03-16T05:17:36.751Z,99379.67
2019-03-16T05:20:40.232Z,99384.61
2019-03-16T05:23:43.726Z,99395.19
2019-03-16T05:26:47.248Z,99396.31
2019-03-16T05:29:50.726Z,99400.48
2019-03-16T05:32:54.229Z,99401.80
2019-03-16T05:35:57.732Z,99402.16
2019-03-16T05:39:01.238Z,99413.70
2019-03-16T05:42:05.753Z,99417.16
2019-03-16T05:45:10.586Z,99428.59
2019-03-16T05:48:14.023Z,99428.13
2019-03-16T05:51:17.480Z,99423.70
2019-03-16T05:54:20.990Z,99429.84
2019-03-16T05:57:24.426Z,99431.52
2019-03-16T06:00:28.014Z,99440.50
2019-03-16T06:03:31.483Z,99443.06
2019-03-16T06:06:35.013Z,99441.82
2019-03-16T06:09:38.646Z,99452.67
2019-03-16T06:12:42.102Z,99447.97
2019-03-16T06:15:45.612Z,99462.90
2019-03-16T06:18:49.054Z,99453.17
2019-03-16T06:21:52.495Z,99456.84
2019-03-16T06:24:57.037Z,99458.66
2019-03-16T06:28:00.552Z,99457.34
2019-03-16T06:31:04.016Z,99469.23
2019-03-16T06:34:07.441Z,99487.75
2019-03-16T06:37:11.018Z,99475.85
2019-03-16T06:40:14.536Z,99482.93
2019-03-16T06:43:19.057Z,99489.90
2019-03-16T06:46:22.611Z,99501.33
2019-03-16T06:49:26.103Z,99505.30
2019-03-16T06:52:29.579Z,99510.23
2019-03-16T06:55:33.066Z,99505.41
2019-03-16T06:58:36.574Z,99507.59
2019-03-16T07:01:42.114Z,99505.91
2019-03-16T07:04:45.596Z,99510.23
2019-03-16T07:07:49.121Z,99511.55
2019-03-16T07:10:52.746Z,99512.87
2019-03-16T07:13:56.298Z,99516.73
2019-03-16T07:17:02.435Z,99515.52
2019-03-16T07:20:06.303Z,99519.48
2019-03-16T07:23:10.030Z,99519.61
2019-03-16T07:26:15.040Z,99519.61
2019-03-16T07:29:18.945Z,99518.40
2019-03-16T07:32:22.506Z,99517.42
2019-03-16T07:35:25.989Z,99521.89
2019-03-16T07:38:30.477Z,99523.69
2019-03-16T07:41:34.003Z,99523.69
2019-03-16T07:44:40.975Z,99524.66
2019-03-16T07:47:45.491Z,99520.19
2019-03-16T07:50:48.989Z,99530.77
2019-03-16T07:53:52.487Z,99533.30
2019-03-16T07:56:56.001Z,99531.27
2019-03-16T08:00:00.488Z,99541.84
2019-03-16T08:03:04.137Z,99539.67
2019-03-16T08:06:08.755Z,99534.84
2019-03-16T08:09:12.287Z,99542.20
2019-03-16T08:12:15.724Z,99538.59
2019-03-16T08:15:19.327Z,99541.23
2019-03-16T08:18:22.957Z,99536.33
2019-03-16T08:21:26.380Z,99543.65
2019-03-16T08:24:29.800Z,99549.72
2019-03-16T08:27:33.549Z,99550.42
2019-03-16T08:30:37.058Z,99554.39
2019-03-16T08:33:40.647Z,99553.07
2019-03-16T08:36:46.200Z,99558.25
2019-03-16T08:39:49.698Z,99558.13
2019-03-16T08:42:53.315Z,99561.75
2019-03-16T08:45:57.010Z,99566.42
2019-03-16T08:49:00.615Z,99561.41
2019-03-16T08:52:04.118Z,99578.60
2019-03-16T08:55:08.022Z,99576.42
2019-03-16T08:58:11.543Z,99582.18
2019-03-16T09:01:15.156Z,99583.39
2019-03-16T09:04:18.745Z,99598.68
2019-03-16T09:07:24.288Z,99605.30
2019-03-16T09:10:27.779Z,99606.97
2019-03-16T09:13:31.290Z,99621.52
2019-03-16T09:16:34.807Z,99626.23
2019-03-16T09:19:40.329Z,99633.67
2019-03-16T09:22:43.851Z,99649.08
2019-03-16T09:25:47.438Z,99644.75
2019-03-16T09:28:59.707Z,99659.44
2019-03-16T09:31:57.417Z,99671.92
2019-03-16T09:35:01.958Z,99666.63
2019-03-16T09:38:05.508Z,99682.51
2019-03-16T09:41:09.248Z,99681.80
2019-03-16T09:44:12.951Z,99696.48
2019-03-16T09:47:16.591Z,99695.16
2019-03-16T09:50:20.154Z,99700.91
2019-03-16T09:53:23.770Z,99695.52
2019-03-16T09:56:27.326Z,99693.84
2019-03-16T09:59:31.057Z,99701.41
2019-03-16T10:02:34.672Z,99703.67
2019-03-16T10:05:38.168Z,99698.27
2019-03-16T10:08:43.409Z,99699.88
2019-03-16T10:11:47.019Z,99698.91
2019-03-16T10:14:50.614Z,99693.11
2019-03-16T10:17:54.232Z,99700.01
2019-03-16T10:20:57.822Z,99691.44
2019-03-16T10:24:01.428Z,99690.00
2019-03-16T10:27:05.949Z,99693.39
2019-03-16T10:30:10.075Z,99695.07
2019-03-16T10:33:13.575Z,99690.25
2019-03-16T10:36:17.079Z,99694.11
2019-03-16T10:39:20.564Z,99689.78
2019-03-16T10:42:24.072Z,99686.16
2019-03-16T10:45:27.592Z,99686.91
2019-03-16T10:48:31.103Z,99683.41
2019-03-16T10:51:36.628Z,99681.61
2019-03-16T10:54:40.610Z,99685.47
2019-03-16T10:57:44.319Z,99690.16
2019-03-16T11:00:48.003Z,99683.93
2019-03-16T11:03:51.469Z,99684.86
2019-03-16T11:06:54.914Z,99683.93
2019-03-16T11:09:59.511Z,99681.64
2019-03-16T11:13:03.096Z,99678.14
2019-03-16T11:16:06.792Z,99670.59
2019-03-16T11:19:10.388Z,99673.94
2019-03-16T11:22:13.886Z,99668.64
2019-03-16T11:25:17.493Z,99670.72
2019-03-16T11:28:22.124Z,99666.74
2019-03-16T11:31:25.651Z,99665.42
2019-03-16T11:34:29.327Z,99658.80
2019-03-16T11:37:33.003Z,99659.73
2019-03-16T11:40:36.519Z,99653.52
2019-03-16T11:43:41.167Z,99649.89
2019-03-16T11:46:45.640Z,99640.27
2019-03-16T11:49:49.187Z,99642.81
2019-03-16T11:52:52.899Z,99636.55
2019-03-16T11:55:56.564Z,99630.28
2019-03-16T11:59:01.019Z,99624.88
2019-03-16T12:02:05.997Z,99615.14
2019-03-16T12:05:09.738Z,99616.36
2019-03-16T12:08:15.664Z,99611.06
2019-03-16T12:11:19.237Z,99596.00
2019-03-16T12:14:22.937Z,99583.97
2019-03-16T12:17:26.538Z,99584.36
2019-03-16T12:20:30.147Z,99579.42
2019-03-16T12:23:33.850Z,99574.13
2019-03-16T12:26:37.538Z,99567.16
2019-03-16T12:29:41.171Z,99558.25
2019-03-16T12:32:44.638Z,99546.57
2019-03-16T12:35:48.181Z,99544.78
2019-03-16T12:38:51.647Z,99545.59
2019-03-16T12:41:55.072Z,99535.86
2019-03-16T12:44:58.675Z,99528.89
2019-03-16T12:48:02.149Z,99527.80
2019-03-16T12:51:05.654Z,99519.86
2019-03-16T12:54:09.163Z,99514.56
2019-03-16T12:57:12.660Z,99504.33
2019-03-16T13:00:17.174Z,99498.56
2019-03-16T13:03:20.692Z,99497.59
2019-03-16T13:06:24.160Z,99495.33
2019-03-16T13:09:28.668Z,99471.12
2019-03-16T13:12:32.195Z,99477.15
2019-03-16T13:15:35.729Z,99480.77
2019-03-16T13:18:39.207Z,99461.27
2019-03-16T13:21:43.996Z,99456.83
2019-03-16T13:24:47.430Z,99453.67
2019-03-16T13:27:50.886Z,99420.23
2019-03-16T13:30:54.337Z,99433.58
2019-03-16T13:33:57.962Z,99436.47
2019-03-16T13:37:01.461Z,99412.64
2019-03-16T13:40:05.653Z,99417.69
2019-03-16T13:43:09.096Z,99404.11
2019-03-16T13:46:12.568Z,99395.19
2019-03-16T13:49:16.410Z,99371.71
2019-03-16T13:52:19.967Z,99368.24
2019-03-16T13:55:23.474Z,99361.13
2019-03-16T13:58:27.928Z,99358.00
2019-03-16T14:01:31.388Z,99365.47
2019-03-16T14:04:34.817Z,99361.13
2019-03-16T14:07:38.270Z,99362.09
2019-03-16T14:10:41.779Z,99355.83
2019-03-16T14:13:45.232Z,99354.03
2019-03-16T14:16:48.943Z,99348.27
2019-03-16T14:19:52.433Z,99341.64
2019-03-16T14:22:56.007Z,99340.67
2019-03-16T14:26:00.539Z,99334.05
2019-03-16T14:29:04.064Z,99329.00
2019-03-16T14:32:07.485Z,99321.41
2019-03-16T14:35:10.933Z,99316.49
2019-03-16T14:38:14.456Z,99309.88
2019-03-16T14:41:17.962Z,99308.90
2019-03-16T14:44:21.409Z,99301.42
2019-03-16T14:47:24.843Z,99297.33
2019-03-16T14:50:28.336Z,99302.63
2019-03-16T14:53:31.761Z,99305.03
2019-03-16T14:56:35.178Z,99304.33
2019-03-16T14:59:38.625Z,99304.05
2019-03-16T15:02:42.043Z,99295.41
2019-03-16T15:05:46.010Z,99301.78
2019-03-16T15:08:49.623Z,99294.78
2019-03-16T15:11:53.052Z,99288.04
2019-03-16T15:14:56.478Z,99276.98
2019-03-16T15:17:59.944Z,99278.65
2019-03-16T15:21:03.572Z,99277.33
2019-03-16T15:24:07.108Z,99263.17
2019-03-16T15:27:10.537Z,99264.50
2019-03-16T15:30:14.522Z,99269.80
2019-03-16T15:33:17.970Z,99273.77
2019-03-16T15:36:21.460Z,99274.81
2019-03-16T15:39:24.984Z,99268.19
2019-03-16T15:42:28.456Z,99267.24
2019-03-16T15:45:31.974Z,99263.74
2019-03-16T15:48:35.466Z,99259.30
2019-03-16T15:51:38.892Z,99259.65
2019-03-16T15:54:42.329Z,99259.05
2019-03-16T15:57:45.787Z,99245.80
2019-03-16T16:01:02.748Z,99246.75
2019-03-16T16:03:55.339Z,99245.80
2019-03-16T16:06:58.918Z,99237.73
2019-03-16T16:10:02.429Z,99238.55
2019-03-16T16:13:09.884Z,99238.55
2019-03-16T16:16:12.108Z,99239.53
2019-03-16T16:19:15.597Z,99241.71
2019-03-16T16:22:19.025Z,99243.50
2019-03-16T16:25:22.472Z,99243.85
2019-03-16T16:28:26.925Z,99248.33
2019-03-16T16:31:30.340Z,99244.70
2019-03-16T16:34:33.770Z,99241.20
2019-03-16T16:37:37.184Z,99246.50
2019-03-16T16:40:40.726Z,99248.80
2019-03-16T16:43:44.178Z,99246.25
2019-03-16T16:46:47.628Z,99252.02
2019-03-16T16:49:51.103Z,99259.14
2019-03-16T16:52:54.634Z,99262.27
2019-03-16T16:55:58.123Z,99257.09
2019-03-16T16:59:01.583Z,99275.63
2019-03-16T17:02:05.044Z,99258.77
2019-03-16T17:05:08.514Z,99265.04
2019-03-16T17:08:11.966Z,99272.29
2019-03-16T17:11:15.425Z,99271.66
2019-03-16T17:14:18.924Z,99277.46
2019-03-16T17:17:34.348Z,99273.96
2019-03-16T17:20:27.566Z,99283.70
2019-03-16T17:23:30.987Z,99275.88
2019-03-16T17:26:34.470Z,99273.96
2019-03-16T17:29:37.957Z,99274.31
2019-03-16T17:32:41.496Z,99272.29
2019-03-16T17:35:44.999Z,99256.02
2019-03-16T17:38:48.476Z,99269.02
2019-03-16T17:41:51.908Z,99276.36
2019-03-16T17:44:55.359Z,99281.91
2019-03-16T17:47:58.837Z,99280.93
2019-03-16T17:51:02.275Z,99277.59
2019-03-16T17:54:06.694Z,99277.59
2019-03-16T17:57:10.267Z,99279.38
2019-03-16T18:00:13.693Z,99270.59
2019-03-16T18:03:17.123Z,99281.91
2019-03-16T18:06:20.567Z,99281.56
2019-03-16T18:09:23.984Z,99284.55
2019-03-16T18:12:27.589Z,99284.55
2019-03-16T18:15:31.022Z,99277.94
2019-03-16T18:18:34.471Z,99270.34
2019-03-16T18:21:37.904Z,99264.69
2019-03-16T18:24:41.392Z,99267.69
2019-03-16T18:27:45.843Z,99271.19
2019-03-16T18:30:49.294Z,99274.19
2019-03-16T18:33:52.743Z,99269.73
2019-03-16T18:36:56.220Z,99271.06
2019-03-16T18:39:59.719Z,99281.03
2019-03-16T18:43:03.221Z,99285.00
2019-03-16T18:46:06.675Z,99273.45
2019-03-16T18:49:10.120Z,99269.48
2019-03-16T18:52:13.542Z,99269.84
2019-03-16T18:55:19.084Z,99274.28
2019-03-16T18:58:36.251Z,99272.36
2019-03-16T19:01:27.702Z,99274.50
2019-03-16T19:04:31.144Z,99275.48
2019-03-16T19:07:34.598Z,99276.67
2019-03-16T19:10:38.019Z,99272.70
2019-03-16T19:13:41.531Z,99275.58
2019-03-16T19:16:44.994Z,99287.14
2019-03-16T19:19:48.424Z,99281.50
2019-03-16T19:22:51.929Z,99276.20
2019-03-16T19:25:55.362Z,99277.28
2019-03-16T19:28:58.791Z,99272.11
2019-03-16T19:32:02.335Z,99272.92
2019-03-16T19:35:05.808Z,99273.78
2019-03-16T19:38:09.269Z,99271.00
2019-03-16T19:41:12.740Z,99271.98
2019-03-16T19:44:16.171Z,99276.77
2019-03-16T19:47:19.617Z,99274.12
2019-03-16T19:50:23.113Z,99274.12
2019-03-16T19:53:26.630Z,99280.40
2019-03-16T19:56:30.113Z,99274.63
2019-03-16T19:59:33.706Z,99273.30
2019-03-16T20:02:48.551Z,99281.72
2019-03-16T20:05:42.286Z,99280.88
2019-03-16T20:08:46.779Z,99277.87
2019-03-16T20:11:50.282Z,99279.20
2019-03-16T20:14:53.795Z,99277.87
2019-03-16T20:17:58.236Z,99284.50
2019-03-16T20:21:01.721Z,99280.18
2019-03-16T20:24:05.163Z,99286.30
2019-03-16T20:27:08.683Z,99288.25
2019-03-16T20:30:12.146Z,99279.45
2019-03-16T20:33:15.619Z,99276.80
2019-03-16T20:36:19.117Z,99270.18
2019-03-16T20:39:22.609Z,99273.17
2019-03-16T20:42:26.130Z,99268.86
2019-03-16T20:45:29.751Z,99268.03
2019-03-16T20:48:33.603Z,99273.33
2019-03-16T20:51:37.117Z,99277.53
2019-03-16T20:54:40.719Z,99271.50
2019-03-16T20:57:44.260Z,99273.45
2019-03-16T21:00:48.070Z,99281.75
2019-03-16T21:03:51.781Z,99277.15
2019-03-16T21:06:55.238Z,99279.45
2019-03-16T21:09:58.754Z,99287.39
2019-03-16T21:13:02.337Z,99280.43
2019-03-16T21:16:05.860Z,99285.37
2019-03-16T21:19:09.357Z,99284.75
2019-03-16T21:22:12.886Z,99283.08
2019-03-16T21:25:16.385Z,99282.09
2019-03-16T21:28:19.848Z,99278.76
2019-03-16T21:31:23.343Z,99271.76
2019-03-16T21:34:26.883Z,99270.09
2019-03-16T21:37:30.361Z,99273.71
2019-03-16T21:40:34.970Z,99272.98
2019-03-16T21:43:38.486Z,99268.66
2019-03-16T21:46:43.904Z,99263.72
2019-03-16T21:49:47.438Z,99260.38
2019-03-16T21:52:51.976Z,99246.75
2019-03-16T21:55:55.449Z,99251.70
2019-03-16T21:58:58.882Z,99249.53
2019-03-16T22:02:02.363Z,99248.33
2019-03-16T22:05:05.921Z,99249.66
2019-03-16T22:08:09.352Z,99262.89
2019-03-16T22:11:12.974Z,99268.19
2019-03-16T22:14:16.417Z,99263.52
2019-03-16T22:17:19.955Z,99265.83
2019-03-16T22:20:23.456Z,99267.49
2019-03-16T22:23:26.950Z,99265.83
2019-03-16T22:26:30.461Z,99257.12
2019-03-16T22:29:33.968Z,99258.79
2019-03-16T22:32:37.491Z,99251.82
2019-03-16T22:35:40.962Z,99243.88
2019-03-16T22:38:44.532Z,99244.86
2019-03-16T22:41:48.198Z,99253.75
2019-03-16T22:44:57.819Z,99251.59
2019-03-16T22:48:01.339Z,99249.42
2019-03-16T22:51:04.810Z,99248.73
2019-03-16T22:54:08.329Z,99247.41
2019-03-16T22:57:11.824Z,99245.23
2019-03-16T23:00:15.638Z,99251.38
2019-03-16T23:03:20.261Z,99253.64
2019-03-16T23:06:23.699Z,99254.27
2019-03-16T23:09:27.169Z,99249.67
2019-03-16T23:12:30.681Z,99247.16
2019-03-16T23:15:35.102Z,99243.69
2019-03-16T23:18:38.592Z,99243.69
2019-03-16T23:21:43.146Z,99240.06
2019-03-16T23:24:46.638Z,99237.06
2019-03-16T23:27:51.163Z,99231.39
2019-03-16T23:30:54.631Z,99227.07
2019-03-16T23:33:59.163Z,99225.41
2019-03-16T23:37:02.657Z,99222.75
2019-03-16T23:40:06.218Z,99224.08
2019-03-16T23:43:09.894Z,99220.11
2019-03-16T23:46:13.387Z,99211.09
2019-03-16T23:49:16.870Z,99210.11
2019-03-16T23:52:21.535Z,99211.69
2019-03-16T23:55:25.002Z,99209.42
2019-03-16T23:58:28.605Z,99205.45
